Time;durP1;ratioP1;P1;durP2;ratioP2;P2;SDS_P1;SDS_P2;PMS_P1;PMS_P2;Temp;Humidity;BMP_temperature;BMP_pressure;BME280_temperature;BME280_humidity;BME280_pressure;Samples;Min_cycle;Max_cycle;Signal;HPM_P1;HPM_P2
2022/01/06 00:01:35;;;;;;;7.13;5.07;;;;;;;1.85;100.00;90053.44;5011864;28;20037;-67
2022/01/06 00:04:01;;;;;;;6.35;4.22;;;;;;;1.98;100.00;90058.03;5026774;28;20037;-67
2022/01/06 00:06:26;;;;;;;9.38;4.60;;;;;;;2.07;100.00;90051.91;5011593;28;20061;-67
2022/01/06 00:08:55;;;;;;;6.90;4.32;;;;;;;2.25;100.00;90053.00;5011724;28;20084;-67
2022/01/06 00:11:20;;;;;;;6.15;4.45;;;;;;;2.23;100.00;90028.91;5011650;28;20488;-67
2022/01/06 00:14:04;;;;;;;6.72;4.38;;;;;;;2.20;100.00;90042.56;5011513;28;20025;-67
2022/01/06 00:24:49;;;;;;;10.20;7.05;;;;;;;1.45;100.00;90074.50;5011601;28;20104;-67
2022/01/06 00:27:14;;;;;;;12.77;7.45;;;;;;;1.54;100.00;90055.53;5011501;28;20037;-67
2022/01/06 00:29:41;;;;;;;12.18;7.55;;;;;;;1.37;100.00;90067.22;5011397;28;20033;-67
2022/01/06 00:32:07;;;;;;;10.88;6.85;;;;;;;1.20;100.00;90062.38;5011263;28;20033;-68
2022/01/06 00:34:32;;;;;;;9.45;6.80;;;;;;;1.32;100.00;90059.41;5010622;28;20123;-67
2022/01/06 00:36:58;;;;;;;9.07;5.78;;;;;;;1.44;100.00;90046.72;5011356;28;20045;-67
2022/01/06 00:39:27;;;;;;;9.00;5.88;;;;;;;1.43;100.00;90054.88;5011342;28;20029;-67
2022/01/06 00:41:56;;;;;;;7.90;5.43;;;;;;;1.37;100.00;90046.25;5011591;28;20041;-67
2022/01/06 00:44:23;;;;;;;9.85;6.32;;;;;;;1.41;100.00;90062.97;5011151;28;20026;-67
2022/01/06 00:46:49;;;;;;;8.13;5.55;;;;;;;1.38;100.00;90066.16;5011266;28;20513;-67
2022/01/06 00:49:17;;;;;;;13.20;6.63;;;;;;;1.36;100.00;90065.66;5011252;28;20033;-67
2022/01/06 00:51:43;;;;;;;10.05;5.97;;;;;;;1.44;100.00;90066.91;5011156;28;20022;-67
2022/01/06 00:54:09;;;;;;;10.68;5.78;;;;;;;1.53;100.00;90053.97;5010927;28;20038;-67
2022/01/06 00:56:34;;;;;;;12.05;7.00;;;;;;;1.55;100.00;90047.41;5011091;28;20037;-67
2022/01/06 00:59:00;;;;;;;8.63;5.63;;;;;;;1.44;100.00;90057.22;5011076;28;20033;-67
2022/01/06 01:01:26;;;;;;;9.65;5.68;;;;;;;1.53;100.00;90038.25;5026345;28;20092;-67
2022/01/06 01:03:51;;;;;;;11.13;7.03;;;;;;;1.26;100.00;90047.38;5011015;28;20523;-67
2022/01/06 01:06:17;;;;;;;10.43;6.53;;;;;;;1.14;100.00;90047.75;5010892;28;20050;-67
2022/01/06 01:08:42;;;;;;;22.42;11.30;;;;;;;1.03;100.00;90059.34;5011044;28;20096;-67
2022/01/06 01:11:08;;;;;;;13.23;7.45;;;;;;;1.15;100.00;90061.63;5011064;28;20049;-67
2022/01/06 01:13:42;;;;;;;13.55;6.82;;;;;;;1.12;100.00;90054.31;5010891;28;20547;-67
2022/01/06 01:16:20;;;;;;;11.27;7.40;;;;;;;1.07;100.00;90062.97;5011018;28;20030;-67
2022/01/06 01:18:46;;;;;;;12.65;7.85;;;;;;;1.05;100.00;90045.97;5010972;28;20481;-67
2022/01/06 01:21:12;;;;;;;15.60;7.72;;;;;;;0.88;100.00;90046.34;5010915;28;20084;-67
2022/01/06 01:23:37;;;;;;;11.75;6.95;;;;;;;0.89;100.00;90056.56;5010852;28;20073;-67
2022/01/06 01:26:03;;;;;;;9.80;6.15;;;;;;;0.95;100.00;90048.66;5010830;28;20026;-67
2022/01/06 01:28:33;;;;;;;11.85;6.53;;;;;;;0.98;100.00;90043.69;5010951;28;20045;-67
2022/01/06 01:31:36;;;;;;;4.93;3.65;;;;;;;1.10;100.00;90032.84;5010845;28;20033;-67
2022/01/06 01:33:56;;;;;;;8.77;4.75;;;;;;;1.33;100.00;90050.47;5009443;28;20550;-67
2022/01/06 01:36:21;;;;;;;7.78;5.50;;;;;;;1.26;100.00;90055.25;5010846;28;20029;-67
2022/01/06 01:38:47;;;;;;;10.50;6.45;;;;;;;1.07;100.00;90049.09;5010838;28;20487;-67
2022/01/06 01:41:13;;;;;;;13.40;7.50;;;;;;;0.78;100.00;90052.41;5010736;28;20496;-67
2022/01/06 01:43:40;;;;;;;13.18;7.78;;;;;;;0.56;100.00;90050.19;5010684;28;20034;-67
2022/01/06 01:46:12;;;;;;;14.88;8.80;;;;;;;0.38;100.00;90066.50;5013811;28;20030;-67
2022/01/06 01:48:41;;;;;;;13.90;8.50;;;;;;;0.40;100.00;90061.00;5014543;28;20042;-67
2022/01/06 01:51:08;;;;;;;16.58;8.98;;;;;;;0.51;100.00;90065.94;5014257;28;20018;-67
2022/01/06 01:53:36;;;;;;;13.95;7.72;;;;;;;0.55;100.00;90061.72;5014030;28;20029;-67
2022/01/06 01:56:05;;;;;;;13.57;7.63;;;;;;;0.61;100.00;90067.69;5014236;28;20081;-67
2022/01/06 01:58:31;;;;;;;14.98;8.65;;;;;;;0.52;100.00;90051.81;5013949;28;20033;-67
2022/01/06 02:00:57;;;;;;;14.98;8.95;;;;;;;0.54;100.00;90056.75;5014037;28;20595;-67
2022/01/06 02:03:22;;;;;;;15.30;7.90;;;;;;;0.66;100.00;90051.22;5013924;28;20120;-67
2022/01/06 02:05:48;;;;;;;12.88;7.57;;;;;;;0.64;100.00;90054.09;5013828;28;20136;-67
2022/01/06 02:08:13;;;;;;;14.65;8.63;;;;;;;0.66;100.00;90067.69;5013885;28;20022;-67
2022/01/06 02:10:39;;;;;;;13.80;7.60;;;;;;;0.71;100.00;90062.44;5013824;28;20175;-67
2022/01/06 02:13:05;;;;;;;10.98;7.38;;;;;;;0.72;100.00;90071.84;5013664;28;20018;-67
2022/01/06 02:15:31;;;;;;;11.57;7.15;;;;;;;0.72;100.00;90064.00;5013790;28;20102;-67
2022/01/06 02:17:57;;;;;;;12.13;5.13;;;;;;;0.84;100.00;90059.22;5013781;28;20069;-67
2022/01/06 02:20:23;;;;;;;6.80;4.97;;;;;;;1.00;100.00;90059.13;5013659;28;20038;-67
2022/01/06 02:22:49;;;;;;;9.57;5.00;;;;;;;0.86;100.00;90057.09;5013572;28;20072;-67
2022/01/06 02:25:19;;;;;;;6.00;4.10;;;;;;;0.79;100.00;90046.16;5013566;28;20061;-67
2022/01/06 02:27:49;;;;;;;7.07;4.38;;;;;;;0.72;100.00;90057.97;5013552;28;20026;-67
2022/01/06 02:30:15;;;;;;;10.68;5.07;;;;;;;0.70;100.00;90037.31;5013429;28;20034;-67
2022/01/06 02:32:41;;;;;;;6.53;4.38;;;;;;;0.78;100.00;90035.94;5013241;28;20076;-67
2022/01/06 02:35:09;;;;;;;10.00;5.50;;;;;;;0.81;100.00;90027.56;5028598;28;20034;-67
2022/01/06 02:37:35;;;;;;;10.20;5.20;;;;;;;0.76;100.00;90030.97;5012062;28;20030;-67
2022/01/06 02:40:05;;;;;;;11.23;5.78;;;;;;;0.85;100.00;90026.75;5013328;28;20034;-67
2022/01/06 02:42:31;;;;;;;8.90;5.35;;;;;;;0.73;100.00;90036.75;5013158;28;20022;-67
2022/01/06 02:44:57;;;;;;;13.60;8.18;;;;;;;0.71;100.00;90032.84;5013254;28;20412;-67
2022/01/06 02:47:22;;;;;;;12.55;7.85;;;;;;;0.64;100.00;90048.88;5013119;28;20116;-67
2022/01/06 02:49:48;;;;;;;16.92;10.48;;;;;;;0.57;100.00;90045.75;5013137;28;20041;-67
2022/01/06 02:52:13;;;;;;;12.57;7.03;;;;;;;0.51;100.00;90036.38;5012835;28;20056;-67
2022/01/06 02:54:39;;;;;;;9.45;6.70;;;;;;;0.65;100.00;90042.59;5012958;28;20037;-67
2022/01/06 02:57:04;;;;;;;9.32;6.68;;;;;;;0.53;100.00;90042.91;5012221;28;20057;-67
2022/01/06 02:59:30;;;;;;;11.68;6.43;;;;;;;0.53;100.00;90048.13;5012875;28;20084;-67
2022/01/06 03:01:55;;;;;;;15.95;9.88;;;;;;;0.47;100.00;90058.88;5012774;28;20068;-67
2022/01/06 03:04:23;;;;;;;15.35;9.15;;;;;;;0.37;100.00;90051.09;5171293;23;20108;-69
2022/01/06 03:06:49;;;;;;;9.75;6.47;;;;;;;0.41;100.00;90055.50;4992432;28;20534;-67
2022/01/06 03:09:14;;;;;;;10.68;6.38;;;;;;;0.35;100.00;90042.72;4993445;28;20046;-67
2022/01/06 03:11:43;;;;;;;10.18;6.15;;;;;;;0.47;100.00;90051.03;4993634;28;20049;-67
2022/01/06 03:14:09;;;;;;;10.48;5.75;;;;;;;0.45;100.00;90053.13;4993205;28;20038;-67
2022/01/06 03:16:35;;;;;;;10.73;5.45;;;;;;;0.40;100.00;90058.41;4993249;28;20066;-67
2022/01/06 03:19:00;;;;;;;20.55;9.75;;;;;;;0.47;100.00;90064.88;4993238;28;20069;-67
2022/01/06 03:21:26;;;;;;;18.77;9.32;;;;;;;0.40;100.00;90066.25;4993184;28;20555;-67
2022/01/06 03:23:51;;;;;;;11.75;6.57;;;;;;;0.43;100.00;90068.31;4993197;28;20110;-67
2022/01/06 03:26:17;;;;;;;14.90;7.18;;;;;;;0.45;100.00;90076.69;4992917;28;20480;-67
2022/01/06 03:28:42;;;;;;;7.90;4.68;;;;;;;0.48;100.00;90069.09;4993044;28;20023;-67
2022/01/06 03:31:08;;;;;;;9.38;5.57;;;;;;;0.37;100.00;90080.66;4993007;28;20038;-67
2022/01/06 03:33:33;;;;;;;11.07;5.95;;;;;;;0.30;100.00;90078.31;4992853;28;20097;-67
2022/01/06 03:35:59;;;;;;;12.55;6.70;;;;;;;0.35;100.00;90076.75;4992830;28;20534;-67
2022/01/06 03:38:24;;;;;;;13.65;6.30;;;;;;;0.23;100.00;90075.22;5007880;28;20026;-67
2022/01/06 03:40:49;;;;;;;17.60;8.50;;;;;;;0.31;100.00;90073.84;4992771;28;20030;-67
2022/01/06 03:43:15;;;;;;;17.67;7.97;;;;;;;0.37;100.00;90085.09;4992781;28;20231;-67
2022/01/06 03:45:41;;;;;;;16.48;8.48;;;;;;;0.37;100.00;90087.72;4992743;28;20038;-67
2022/01/06 03:48:06;;;;;;;20.13;8.43;;;;;;;0.47;100.00;90079.81;4992687;28;20522;-67
2022/01/06 03:50:32;;;;;;;7.72;5.25;;;;;;;0.44;100.00;90082.97;4992619;28;20026;-67
2022/01/06 03:52:58;;;;;;;9.32;5.53;;;;;;;0.54;100.00;90083.72;4992580;28;20027;-67
2022/01/06 03:55:24;;;;;;;8.90;5.28;;;;;;;0.51;100.00;90081.63;4992510;28;20030;-67
2022/01/06 03:57:49;;;;;;;9.43;5.57;;;;;;;0.43;100.00;90079.56;4992472;28;20117;-67
2022/01/06 04:00:18;;;;;;;15.07;9.48;;;;;;;0.46;100.00;90093.94;4992418;28;20026;-67
2022/01/06 04:02:45;;;;;;;11.88;6.97;;;;;;;0.47;100.00;90085.81;4992488;28;20113;-67
2022/01/06 04:05:12;;;;;;;8.77;5.97;;;;;;;0.56;100.00;90099.13;4992086;28;20078;-68
2022/01/06 04:07:39;;;;;;;10.32;6.75;;;;;;;0.59;100.00;90091.53;4991575;28;20072;-67
2022/01/06 04:10:06;;;;;;;14.45;7.80;;;;;;;0.57;100.00;90092.84;4992087;28;20089;-67
2022/01/06 04:12:34;;;;;;;12.32;7.55;;;;;;;0.52;100.00;90101.50;4992386;28;20023;-68
2022/01/06 04:15:00;;;;;;;11.98;7.18;;;;;;;0.44;100.00;90103.91;4992284;28;20064;-68
2022/01/06 04:17:26;;;;;;;11.50;7.57;;;;;;;0.41;100.00;90096.59;4992300;28;20458;-67
2022/01/06 04:19:51;;;;;;;12.25;7.55;;;;;;;0.35;100.00;90095.84;4992177;28;20493;-67
2022/01/06 04:22:17;;;;;;;10.60;5.50;;;;;;;0.28;100.00;90103.16;4992074;28;20049;-67
2022/01/06 04:24:44;;;;;;;7.05;4.95;;;;;;;0.26;100.00;90107.88;4992041;28;20460;-67
2022/01/06 04:27:10;;;;;;;8.13;5.40;;;;;;;0.24;100.00;90109.97;4992037;28;20030;-67
2022/01/06 04:29:36;;;;;;;13.55;6.97;;;;;;;0.24;100.00;90102.91;4991993;28;20034;-67
2022/01/06 04:32:01;;;;;;;13.38;7.88;;;;;;;0.28;100.00;90100.56;4991922;28;20167;-67
2022/01/06 04:34:27;;;;;;;13.32;7.38;;;;;;;0.29;100.00;90097.66;4991866;28;20060;-67
2022/01/06 04:36:53;;;;;;;12.45;7.35;;;;;;;0.29;100.00;90102.13;4991992;28;20033;-67
2022/01/06 04:39:19;;;;;;;18.27;8.15;;;;;;;0.29;100.00;90109.97;4991853;28;20048;-67
2022/01/06 04:41:44;;;;;;;17.35;10.18;;;;;;;0.30;100.00;90101.06;4991957;28;20572;-67
2022/01/06 04:44:10;;;;;;;21.15;12.00;;;;;;;0.30;100.00;90090.59;4991740;28;20034;-68
2022/01/06 04:46:36;;;;;;;25.58;14.00;;;;;;;0.34;100.00;90096.88;4991904;28;20030;-67
2022/01/06 04:49:03;;;;;;;20.50;12.23;;;;;;;0.50;100.00;90111.47;4992124;28;20126;-67
2022/01/06 04:51:29;;;;;;;26.33;16.13;;;;;;;0.62;100.00;90107.75;4991875;28;20085;-67
2022/01/06 04:53:55;;;;;;;51.28;27.33;;;;;;;0.62;100.00;90099.88;5006725;28;20030;-68
2022/01/06 04:56:20;;;;;;;33.88;17.30;;;;;;;0.54;100.00;90117.72;4991686;28;20031;-67
2022/01/06 04:58:46;;;;;;;23.52;15.00;;;;;;;0.57;100.00;90095.47;4991832;28;20400;-67
2022/01/06 05:01:11;;;;;;;23.55;13.45;;;;;;;0.66;100.00;90090.47;4991817;28;20181;-67
2022/01/06 05:03:37;;;;;;;18.20;11.27;;;;;;;0.71;100.00;90106.13;4991716;28;20027;-67
2022/01/06 05:06:02;;;;;;;20.58;11.70;;;;;;;0.80;100.00;90100.06;4991519;28;20427;-67
2022/01/06 05:08:29;;;;;;;20.63;13.55;;;;;;;0.82;100.00;90092.75;4991697;28;20030;-67
2022/01/06 05:10:55;;;;;;;24.58;14.43;;;;;;;0.86;100.00;90099.00;4991724;28;20041;-67
2022/01/06 05:13:20;;;;;;;21.15;12.90;;;;;;;0.82;100.00;90084.88;4991576;28;20026;-67
2022/01/06 05:15:46;;;;;;;23.63;13.35;;;;;;;0.92;100.00;90096.34;4991579;28;20038;-67
2022/01/06 05:18:11;;;;;;;23.92;14.88;;;;;;;0.95;100.00;90098.41;4991602;28;20032;-67
2022/01/06 05:20:40;;;;;;;28.33;15.73;;;;;;;0.98;100.00;90097.88;4994205;28;20492;-67
2022/01/06 05:23:05;;;;;;;34.95;18.83;;;;;;;0.95;100.00;90112.31;4995713;28;20404;-67
2022/01/06 05:25:32;;;;;;;39.38;19.42;;;;;;;0.96;100.00;90103.41;4995302;28;20034;-67
2022/01/06 05:27:57;;;;;;;39.22;20.35;;;;;;;0.99;100.00;90089.75;4995363;28;20026;-67
2022/01/06 05:30:23;;;;;;;99.70;48.42;;;;;;;0.93;100.00;90103.13;5010335;28;20046;-67
2022/01/06 05:32:48;;;;;;;53.90;28.80;;;;;;;0.79;100.00;90095.09;4995169;28;20113;-67
2022/01/06 05:35:14;;;;;;;58.17;33.65;;;;;;;0.74;100.00;90093.28;4993867;28;20034;-67
2022/01/06 05:37:40;;;;;;;64.28;32.80;;;;;;;0.64;100.00;90103.81;4995065;28;20054;-67
2022/01/06 05:40:06;;;;;;;69.55;32.13;;;;;;;0.63;100.00;90104.06;4995099;28;20045;-67
2022/01/06 05:42:31;;;;;;;68.60;34.38;;;;;;;0.57;100.00;90106.72;4995015;28;20029;-67
2022/01/06 05:44:57;;;;;;;68.95;35.63;;;;;;;0.49;100.00;90103.91;4993603;28;20038;-67
2022/01/06 05:47:22;;;;;;;53.15;29.08;;;;;;;0.47;100.00;90091.06;4994965;28;20023;-67
2022/01/06 05:49:48;;;;;;;68.15;33.45;;;;;;;0.45;100.00;90103.63;4994917;28;20057;-67
2022/01/06 05:52:14;;;;;;;39.38;22.08;;;;;;;0.41;100.00;90096.59;4994787;28;20030;-67
2022/01/06 05:54:40;;;;;;;51.80;24.83;;;;;;;0.42;100.00;90101.53;4994754;28;20030;-67
2022/01/06 05:57:06;;;;;;;46.60;22.80;;;;;;;0.45;100.00;90105.47;4994759;28;20405;-67
2022/01/06 05:59:32;;;;;;;56.60;29.92;;;;;;;0.52;100.00;90098.13;4994610;28;20033;-67
2022/01/06 06:01:58;;;;;;;55.10;30.48;;;;;;;0.47;100.00;90114.59;4994575;28;20030;-67
2022/01/06 06:04:24;;;;;;;49.55;26.17;;;;;;;0.38;100.00;90102.34;4994177;28;20034;-68
2022/01/06 06:06:49;;;;;;;51.03;25.83;;;;;;;0.48;100.00;90115.41;4994427;28;20183;-67
2022/01/06 06:09:15;;;;;;;42.75;25.10;;;;;;;0.48;100.00;90110.97;4994446;28;20058;-67
2022/01/06 06:11:40;;;;;;;70.60;39.67;;;;;;;0.66;100.00;90114.03;4994354;28;20043;-67
2022/01/06 06:14:06;;;;;;;56.90;31.98;;;;;;;0.73;100.00;90120.50;4994161;28;20026;-67
2022/01/06 06:16:31;;;;;;;46.45;27.00;;;;;;;0.74;100.00;90122.09;4994401;28;20061;-67
2022/01/06 06:18:57;;;;;;;49.10;26.42;;;;;;;0.73;100.00;90122.34;4994316;28;20034;-66
2022/01/06 06:21:22;;;;;;;61.45;28.63;;;;;;;0.74;100.00;90122.09;4994244;28;20034;-66
2022/01/06 06:23:49;;;;;;;48.25;26.25;;;;;;;0.78;100.00;90127.56;4994267;28;20049;-67
2022/01/06 06:26:15;;;;;;;41.55;24.58;;;;;;;0.86;100.00;90135.63;4994009;28;20081;-67
2022/01/06 06:28:40;;;;;;;62.78;31.95;;;;;;;1.01;100.00;90123.53;4994111;28;20038;-67
2022/01/06 06:31:06;;;;;;;74.57;36.35;;;;;;;1.07;100.00;90127.66;4992998;28;20062;-67
2022/01/06 06:33:43;;;;;;;55.35;29.63;;;;;;;1.16;100.00;90133.91;4993950;28;20459;-68
2022/01/06 06:36:09;;;;;;;70.15;36.30;;;;;;;1.24;100.00;90129.91;4993890;28;20027;-67
2022/01/06 06:38:34;;;;;;;66.88;36.97;;;;;;;1.43;100.00;90136.88;4992573;28;20038;-66
2022/01/06 06:41:03;;;;;;;70.68;37.85;;;;;;;1.62;100.00;90137.00;4993952;28;20547;-68
2022/01/06 06:43:28;;;;;;;67.75;36.47;;;;;;;1.87;100.00;90153.56;4993900;28;20105;-66
2022/01/06 06:45:54;;;;;;;72.97;37.55;;;;;;;1.99;100.00;90146.13;4993722;28;20492;-66
2022/01/06 06:48:21;;;;;;;68.45;36.80;;;;;;;2.21;100.00;90149.09;4993730;28;20058;-66
2022/01/06 06:50:47;;;;;;;70.95;37.13;;;;;;;2.46;100.00;90149.88;4993701;28;20038;-66
2022/01/06 06:53:12;;;;;;;72.60;37.90;;;;;;;2.55;100.00;90143.75;4993632;28;20041;-66
2022/01/06 06:55:38;;;;;;;81.18;42.85;;;;;;;2.63;100.00;90142.34;4993536;28;20112;-66
2022/01/06 06:58:03;;;;;;;89.05;43.28;;;;;;;2.79;100.00;90156.88;4993554;28;20034;-67
2022/01/06 07:00:29;;;;;;;103.28;54.05;;;;;;;2.94;100.00;90159.31;4993517;28;20040;-66
2022/01/06 07:02:55;;;;;;;85.88;46.78;;;;;;;3.09;100.00;90150.47;4993515;28;20103;-66
2022/01/06 07:05:20;;;;;;;122.65;63.13;;;;;;;3.23;100.00;90147.94;4993175;28;20057;-67
2022/01/06 07:07:46;;;;;;;125.95;67.15;;;;;;;3.42;100.00;90171.59;4991934;28;20034;-67
2022/01/06 07:10:12;;;;;;;102.97;58.20;;;;;;;3.49;100.00;90156.25;4993182;28;20026;-67
2022/01/06 07:12:45;;;;;;;108.30;56.75;;;;;;;3.76;100.00;90145.84;4993069;28;20503;-67
2022/01/06 07:15:12;;;;;;;77.55;44.40;;;;;;;3.92;100.00;90155.06;4993121;28;20030;-66
2022/01/06 07:17:38;;;;;;;80.00;43.42;;;;;;;4.17;100.00;90156.53;4993180;28;20046;-66
2022/01/06 07:20:05;;;;;;;76.72;44.20;;;;;;;4.60;100.00;90156.31;4992672;28;20133;-66
2022/01/06 07:22:30;;;;;;;83.60;47.67;;;;;;;4.87;100.00;90160.81;4992975;28;20068;-66
2022/01/06 07:24:56;;;;;;;41.72;22.50;;;;;;;6.19;100.00;90160.69;4992859;28;20076;-66
2022/01/06 07:27:23;;;;;;;47.15;28.42;;;;;;;9.78;80.02;90156.47;4992970;28;20496;-66
2022/01/06 07:29:48;;;;;;;52.88;28.23;;;;;;;13.78;58.41;90152.50;4992952;28;20038;-66
2022/01/06 07:32:14;;;;;;;45.58;28.88;;;;;;;15.80;51.55;90150.44;4992810;28;20519;-67
2022/01/06 07:34:39;;;;;;;50.95;30.85;;;;;;;16.55;47.81;90159.59;4992771;28;20028;-67
2022/01/06 07:37:05;;;;;;;52.53;30.00;;;;;;;19.08;44.19;90178.13;4992813;28;20160;-67
2022/01/06 07:39:31;;;;;;;41.22;25.65;;;;;;;20.73;40.29;90156.47;4992880;28;20109;-67
2022/01/06 07:41:57;;;;;;;35.22;22.92;;;;;;;19.70;39.73;90170.66;4992549;28;20038;-67
2022/01/06 07:44:22;;;;;;;35.55;25.20;;;;;;;16.69;44.93;90173.22;4992416;28;20447;-67
2022/01/06 07:46:48;;;;;;;27.10;19.50;;;;;;;15.07;48.22;90175.53;4992627;28;20409;-67
2022/01/06 07:49:14;;;;;;;223.32;148.68;;;;;;;13.49;53.39;90170.50;4992612;28;20113;-65
2022/01/06 07:51:41;;;;;;;40.72;25.73;;;;;;;12.47;54.10;90179.97;4991150;28;20060;-66
2022/01/06 07:54:07;;;;;;;47.83;31.73;;;;;;;12.09;56.31;90176.91;4992246;28;20026;-66
2022/01/06 07:56:33;;;;;;;56.30;30.95;;;;;;;11.20;57.72;90177.50;4992408;28;20038;-66
2022/01/06 07:58:59;;;;;;;84.00;52.85;;;;;;;10.61;59.75;90182.34;4991961;28;20053;-66
2022/01/06 08:01:25;;;;;;;107.18;54.22;;;;;;;10.00;62.07;90182.75;4992347;28;20031;-66
2022/01/06 08:03:51;;;;;;;90.15;51.50;;;;;;;10.14;63.11;90193.16;4992163;28;20097;-66
2022/01/06 08:06:17;;;;;;;89.93;52.38;;;;;;;11.01;60.78;90179.91;4992084;28;20049;-66
2022/01/06 08:08:43;;;;;;;89.95;54.38;;;;;;;12.40;57.46;90186.97;4992291;28;20583;-66
2022/01/06 08:11:10;;;;;;;62.67;39.78;;;;;;;13.14;54.83;90193.59;4992196;28;20129;-66
2022/01/06 08:13:36;;;;;;;59.20;35.65;;;;;;;13.06;55.43;90191.84;4990900;28;20488;-66
2022/01/06 08:16:01;;;;;;;63.45;38.22;;;;;;;13.65;53.49;90186.53;4992020;28;20053;-66
2022/01/06 08:18:27;;;;;;;45.65;28.05;;;;;;;13.46;53.57;90195.25;5007257;28;20145;-66
2022/01/06 08:20:52;;;;;;;45.60;27.15;;;;;;;13.68;53.66;90190.41;4992158;28;20658;-66
2022/01/06 08:23:18;;;;;;;56.13;35.50;;;;;;;15.21;50.71;90193.78;4992105;28;20064;-67
2022/01/06 08:25:43;;;;;;;29.92;19.48;;;;;;;16.89;45.38;90187.31;4990663;28;20382;-68
2022/01/06 08:28:09;;;;;;;29.73;19.17;;;;;;;18.36;44.18;90189.59;4991996;28;20045;-67
2022/01/06 08:30:35;;;;;;;35.35;22.55;;;;;;;19.08;42.04;90184.28;4991984;28;20527;-67
2022/01/06 08:33:01;;;;;;;66.03;30.17;;;;;;;18.49;42.26;90182.78;4991839;28;20027;-66
2022/01/06 08:35:27;;;;;;;54.50;37.60;;;;;;;19.84;40.26;90199.63;4988728;28;20042;-67
2022/01/06 08:37:52;;;;;;;55.90;35.40;;;;;;;20.31;40.36;90186.94;4987727;28;20034;-68
2022/01/06 08:40:18;;;;;;;76.22;50.95;;;;;;;19.78;40.74;90195.00;4991587;28;20039;-67
2022/01/06 08:42:46;;;;;;;67.57;45.75;;;;;;;21.86;38.36;90197.06;4991767;28;20045;-67
2022/01/06 08:45:16;;;;;;;74.82;51.08;;;;;;;23.39;36.35;90193.19;4991391;28;20052;-67
2022/01/06 08:47:42;;;;;;;124.30;92.40;;;;;;;24.95;34.67;90182.16;4991638;28;20049;-67
2022/01/06 08:50:08;;;;;;;42.42;28.67;;;;;;;23.34;34.42;90193.63;4991609;28;20129;-66
2022/01/06 08:52:35;;;;;;;28.52;18.40;;;;;;;22.79;35.62;90181.72;4990952;28;20113;-67
2022/01/06 08:55:00;;;;;;;13.98;5.93;;;;;;;21.74;35.57;90188.22;4992967;28;20104;-67
2022/01/06 08:57:26;;;;;;;14.45;8.52;;;;;;;23.46;34.29;90183.00;4995548;28;20504;-67
2022/01/06 08:59:52;;;;;;;24.88;9.35;;;;;;;19.92;38.06;90187.69;4995538;28;20034;-66
2022/01/06 09:02:17;;;;;;;11.00;5.72;;;;;;;20.52;38.38;90176.19;4995408;28;20400;-67
2022/01/06 09:04:42;;;;;;;16.77;7.80;;;;;;;20.61;37.61;90171.16;4993919;28;20051;-67
2022/01/06 09:07:08;;;;;;;15.07;9.68;;;;;;;18.68;40.64;90168.31;4994979;28;20105;-66
2022/01/06 09:09:34;;;;;;;89.05;14.38;;;;;;;18.39;41.06;90178.06;4995436;28;20117;-66
2022/01/06 09:11:59;;;;;;;11.95;8.52;;;;;;;19.26;41.10;90173.59;4995383;28;20471;-65
2022/01/06 09:14:25;;;;;;;11.68;6.90;;;;;;;20.53;37.66;90171.56;4995291;28;20113;-67
2022/01/06 09:16:53;;;;;;;14.02;8.52;;;;;;;19.44;39.95;90179.84;4995296;28;20566;-66
2022/01/06 09:19:19;;;;;;;14.48;8.35;;;;;;;18.42;40.72;90180.78;4995494;28;20116;-66
2022/01/06 09:21:44;;;;;;;15.63;9.93;;;;;;;18.87;40.22;90173.41;4994688;28;20440;-66
2022/01/06 09:24:10;;;;;;;13.90;7.57;;;;;;;18.80;39.89;90190.31;4994875;28;20045;-66
2022/01/06 09:26:37;;;;;;;18.85;11.80;;;;;;;18.93;39.68;90181.91;4995136;28;20065;-67
2022/01/06 09:29:05;;;;;;;14.30;7.45;;;;;;;21.32;37.19;90183.78;4997914;28;20034;-66
2022/01/06 09:31:33;;;;;;;12.68;4.45;;;;;;;21.88;35.35;90173.06;4996820;28;20117;-65
2022/01/06 09:33:59;;;;;;;15.27;5.40;;;;;;;23.98;33.07;90180.06;4995884;28;20508;-67
2022/01/06 09:36:27;;;;;;;9.77;4.72;;;;;;;23.27;32.20;90178.97;4994695;28;20070;-69
2022/01/06 09:38:54;;;;;;;8.98;3.55;;;;;;;23.58;32.49;90181.75;4994954;28;20042;-68
2022/01/06 09:41:20;;;;;;;9.93;5.68;;;;;;;23.99;32.11;90187.06;4994797;28;20038;-68
2022/01/06 09:43:48;;;;;;;16.02;7.55;;;;;;;24.20;32.21;90183.28;4994595;28;20037;-67
2022/01/06 09:46:14;;;;;;;13.02;5.57;;;;;;;22.40;33.30;90171.97;4994782;28;20073;-68
2022/01/06 09:48:40;;;;;;;7.53;4.35;;;;;;;22.06;33.61;90179.94;4994656;28;20038;-69
2022/01/06 09:51:08;;;;;;;13.32;7.03;;;;;;;21.83;34.61;90179.69;4994692;28;20030;-69
2022/01/06 09:53:33;;;;;;;12.60;4.22;;;;;;;21.86;33.85;90178.13;4994201;28;20034;-69
2022/01/06 09:55:59;;;;;;;13.35;6.85;;;;;;;24.40;32.17;90162.41;4994553;28;20421;-68
2022/01/06 09:58:39;;;;;;;15.82;5.30;;;;;;;24.97;30.35;90177.06;4993634;28;20026;-67
2022/01/06 10:01:05;;;;;;;14.90;5.10;;;;;;;24.34;30.72;90179.63;4997829;28;20030;-67
2022/01/06 10:03:37;;;;;;;14.68;5.20;;;;;;;23.52;31.58;90173.25;5002801;28;20053;-66
2022/01/06 10:06:21;;;;;;;23.17;7.35;;;;;;;23.56;31.26;90182.13;5012828;28;20516;-66
2022/01/06 10:08:57;;;;;;;17.42;7.47;;;;;;;25.86;28.87;90175.44;5005800;28;20561;-68
2022/01/06 10:11:27;;;;;;;41.67;6.72;;;;;;;25.09;29.03;90162.88;4994309;28;20030;-68
2022/01/06 10:14:04;;;;;;;59.58;10.32;;;;;;;23.62;30.83;90159.97;4994116;28;20706;-69
2022/01/06 10:16:30;;;;;;;13.43;4.20;;;;;;;23.53;30.89;90161.22;4993998;28;20027;-68
2022/01/06 10:18:57;;;;;;;10.75;6.35;;;;;;;22.59;32.28;90167.19;5000111;28;20034;-68
2022/01/06 10:21:22;;;;;;;117.95;12.70;;;;;;;22.78;32.12;90158.50;4999368;28;20034;-68
2022/01/06 10:24:08;;;;;;;15.02;6.22;;;;;;;22.57;32.03;90161.41;4994046;28;20133;-69
2022/01/06 10:26:36;;;;;;;30.05;5.20;;;;;;;22.29;32.33;90163.16;5013467;28;20062;-69
2022/01/06 10:29:03;;;;;;;65.97;6.72;;;;;;;22.31;32.58;90151.94;5013204;28;20045;-69
2022/01/06 10:31:30;;;;;;;14.85;8.95;;;;;;;21.57;33.32;90153.88;5013579;28;20128;-69
2022/01/06 10:33:57;;;;;;;18.98;8.05;;;;;;;22.19;33.47;90166.72;5013411;28;20034;-69
2022/01/06 10:36:28;;;;;;;41.63;13.27;;;;;;;22.18;33.58;90159.75;5012890;28;20500;-68
2022/01/06 10:38:56;;;;;;;18.98;5.22;;;;;;;22.10;32.80;90166.41;5005295;28;20080;-69
2022/01/06 10:41:21;;;;;;;28.33;5.53;;;;;;;22.15;32.83;90159.78;5008126;28;20133;-69
2022/01/06 10:43:58;;;;;;;12.98;5.97;;;;;;;22.43;33.02;90154.16;5011431;28;20131;-69
2022/01/06 10:46:34;;;;;;;7.45;4.22;;;;;;;22.23;33.03;90156.59;4993323;28;20034;-69
2022/01/06 10:49:11;;;;;;;45.58;7.28;;;;;;;22.21;32.84;90156.25;4993448;28;20030;-69
2022/01/06 10:51:38;;;;;;;26.40;6.13;;;;;;;21.09;34.67;90151.72;4993151;28;20026;-68
2022/01/06 10:54:10;;;;;;;18.02;5.53;;;;;;;22.17;33.60;90157.44;4993462;28;20038;-67
2022/01/06 10:56:36;;;;;;;56.25;6.85;;;;;;;22.75;32.03;90148.47;4992534;28;20488;-68
2022/01/06 10:59:02;;;;;;;33.38;8.95;;;;;;;23.29;31.69;90154.13;4993302;28;20057;-67
2022/01/06 11:01:32;;;;;;;24.65;12.77;;;;;;;23.98;30.66;90155.59;5001409;28;20041;-67
2022/01/06 11:03:57;;;;;;;34.33;8.15;;;;;;;23.84;31.21;90150.41;4986552;28;20516;-67
2022/01/06 11:06:23;;;;;;;15.27;6.82;;;;;;;23.38;31.60;90148.22;4991223;28;20054;-68
2022/01/06 11:08:51;;;;;;;18.77;8.75;;;;;;;22.40;33.41;90136.72;4991824;28;20029;-67
2022/01/06 11:11:30;;;;;;;57.80;11.85;;;;;;;21.76;34.35;90139.09;4992905;28;20108;-67
2022/01/06 11:13:56;;;;;;;20.42;8.20;;;;;;;20.39;35.73;90142.59;4992601;28;20034;-67
2022/01/06 11:16:22;;;;;;;25.00;6.47;;;;;;;20.92;35.09;90136.34;4991611;28;20037;-67
2022/01/06 11:18:52;;;;;;;11.98;7.93;;;;;;;20.32;36.17;90140.63;4987993;28;20034;-67
2022/01/06 11:21:40;;;;;;;18.80;7.55;;;;;;;19.40;37.83;90133.16;4980478;28;20421;-67
2022/01/06 11:24:16;;;;;;;14.48;5.30;;;;;;;19.44;38.54;90138.59;4991835;28;20042;-65
2022/01/06 11:26:55;;;;;;;18.42;5.78;;;;;;;20.01;38.18;90133.31;4989004;28;20125;-66
2022/01/06 11:29:28;;;;;;;8.13;4.15;;;;;;;21.02;35.99;90143.66;4991080;28;20493;-66